Time;durP1;ratioP1;P1;durP2;ratioP2;P2;SDS_P1;SDS_P2;PMS_P1;PMS_P2;Temp;Humidity;BMP_temperature;BMP_pressure;BME280_temperature;BME280_humidity;BME280_pressure;Samples;Min_cycle;Max_cycle;Signal;HPM_P1;HPM_P2
2022/06/18 00:01:45;;;;;;;2.20;1.47;;;;;;;18.19;55.63;99184.56;5091805;28;20635;-48
2022/06/18 00:04:14;;;;;;;2.13;1.27;;;;;;;18.12;55.27;99185.31;5090434;28;20201;-48
2022/06/18 00:06:50;;;;;;;2.20;1.27;;;;;;;18.08;54.81;99184.03;5091801;28;20663;-48
2022/06/18 00:09:21;;;;;;;1.50;1.40;;;;;;;18.06;54.18;99183.41;5091369;28;20213;-48
2022/06/18 00:14:34;;;;;;;1.73;1.43;;;;;;;18.10;55.42;99171.47;5091849;28;20187;-48
2022/06/18 00:17:02;;;;;;;1.77;1.50;;;;;;;18.17;55.69;99174.19;5095520;28;20679;-48
2022/06/18 00:19:29;;;;;;;1.60;1.50;;;;;;;18.08;55.47;99164.75;5095008;28;20279;-50
2022/06/18 00:21:56;;;;;;;2.17;1.20;;;;;;;18.07;54.41;99165.75;5095123;28;20635;-49
2022/06/18 00:24:25;;;;;;;1.77;1.40;;;;;;;18.09;55.08;99161.09;5095372;28;20554;-48
2022/06/18 00:26:53;;;;;;;1.60;1.20;;;;;;;18.07;55.61;99166.53;5095317;28;20195;-48
2022/06/18 00:29:20;;;;;;;3.37;1.50;;;;;;;18.00;55.50;99168.31;5093417;28;20695;-48
2022/06/18 00:31:48;;;;;;;1.70;1.30;;;;;;;17.98;56.41;99168.47;5093737;28;20231;-48
2022/06/18 00:34:15;;;;;;;1.97;1.57;;;;;;;17.97;56.75;99164.19;5095150;28;20187;-48
2022/06/18 00:36:44;;;;;;;1.70;1.47;;;;;;;18.00;55.69;99165.69;5093585;28;20190;-49
2022/06/18 00:39:15;;;;;;;1.70;1.30;;;;;;;17.98;56.37;99170.31;5093270;28;20623;-48
2022/06/18 00:41:46;;;;;;;1.40;1.30;;;;;;;17.94;57.64;99172.47;5093618;28;20240;-48
2022/06/18 00:44:26;;;;;;;2.47;1.60;;;;;;;17.90;56.24;99167.75;5093685;28;20198;-48
2022/06/18 00:47:09;;;;;;;2.00;1.80;;;;;;;17.88;56.43;99159.22;5093434;28;20186;-48
2022/06/18 00:50:01;;;;;;;1.57;1.47;;;;;;;18.00;57.16;99169.13;5095214;28;20189;-48
2022/06/18 00:52:36;;;;;;;1.50;1.40;;;;;;;17.94;57.36;99169.84;5093562;28;20194;-48
2022/06/18 00:55:08;;;;;;;4.20;1.93;;;;;;;17.94;57.14;99171.69;5094645;28;20192;-48
2022/06/18 00:57:43;;;;;;;1.80;1.43;;;;;;;17.91;58.18;99169.41;5093103;28;20222;-48
2022/06/18 01:00:14;;;;;;;2.00;1.40;;;;;;;17.83;57.07;99170.31;5093118;28;20655;-48
2022/06/18 01:02:46;;;;;;;2.63;1.60;;;;;;;17.85;56.47;99168.31;5093765;28;20556;-48
2022/06/18 01:05:20;;;;;;;4.10;1.57;;;;;;;17.91;59.51;99159.66;5093327;28;20674;-48
2022/06/18 01:07:53;;;;;;;2.73;1.50;;;;;;;17.81;57.37;99153.84;5093156;28;20216;-48
2022/06/18 01:10:29;;;;;;;1.93;1.50;;;;;;;17.83;58.45;99160.59;5093004;28;20285;-48
2022/06/18 01:13:01;;;;;;;2.23;1.60;;;;;;;17.74;57.49;99153.75;5093115;28;20250;-48
2022/06/18 01:15:31;;;;;;;3.63;1.70;;;;;;;17.73;57.72;99152.13;5092801;28;20254;-48
2022/06/18 01:18:00;;;;;;;1.60;1.50;;;;;;;17.77;56.02;99150.75;5092630;28;20771;-48
2022/06/18 01:20:28;;;;;;;2.93;2.20;;;;;;;17.77;57.94;99148.13;5092981;28;20198;-48
2022/06/18 01:23:03;;;;;;;2.60;1.87;;;;;;;17.74;58.03;99147.66;5092722;28;20186;-48
2022/06/18 01:25:31;;;;;;;3.53;1.90;;;;;;;17.75;58.18;99141.38;5092505;28;20238;-48
2022/06/18 01:27:59;;;;;;;1.83;1.70;;;;;;;17.73;58.73;99136.28;5091521;28;20301;-48
2022/06/18 01:30:33;;;;;;;2.83;1.77;;;;;;;17.68;58.20;99136.81;5092407;28;20273;-48
2022/06/18 01:33:01;;;;;;;2.37;1.80;;;;;;;17.70;57.17;99134.00;5092462;28;20239;-49
2022/06/18 01:35:31;;;;;;;2.00;1.70;;;;;;;17.71;57.16;99136.47;5092549;28;20658;-49
2022/06/18 01:38:04;;;;;;;1.80;1.70;;;;;;;17.79;57.75;99135.53;5092066;28;20245;-48
2022/06/18 01:40:41;;;;;;;2.03;1.80;;;;;;;17.76;58.38;99128.00;5092299;28;20192;-48
2022/06/18 01:43:17;;;;;;;1.83;1.70;;;;;;;17.68;57.65;99125.47;5092491;28;20185;-48
2022/06/18 01:45:48;;;;;;;2.17;1.53;;;;;;;17.70;58.34;99126.91;5092543;28;20654;-48
2022/06/18 01:48:19;;;;;;;3.40;1.80;;;;;;;17.77;59.87;99116.44;5092390;28;20585;-49
2022/06/18 01:50:51;;;;;;;3.73;1.87;;;;;;;17.66;59.64;99117.72;5092166;28;20240;-49
2022/06/18 01:53:23;;;;;;;1.90;1.60;;;;;;;17.63;57.97;99117.28;5092256;28;20249;-50
2022/06/18 01:55:56;;;;;;;2.43;1.57;;;;;;;17.65;58.78;99123.19;5092068;28;20260;-50
2022/06/18 01:58:46;;;;;;;2.23;1.70;;;;;;;17.58;58.42;99111.72;5094083;28;20707;-48
2022/06/18 02:01:28;;;;;;;2.80;1.70;;;;;;;17.62;58.54;99110.34;5092142;28;20188;-49
2022/06/18 02:03:59;;;;;;;4.03;1.60;;;;;;;17.55;58.28;99097.91;5092390;28;20199;-48
2022/06/18 02:06:27;;;;;;;4.53;1.60;;;;;;;17.63;57.41;99104.06;5092093;28;20200;-48
2022/06/18 02:08:54;;;;;;;2.10;1.90;;;;;;;17.61;59.40;99095.53;5091850;28;20217;-48
2022/06/18 02:11:24;;;;;;;1.83;1.63;;;;;;;17.56;58.61;99094.25;5092022;28;20209;-48
2022/06/18 02:13:59;;;;;;;2.60;1.70;;;;;;;17.52;58.69;99081.59;5091614;28;20240;-48
2022/06/18 02:16:35;;;;;;;1.60;1.50;;;;;;;17.51;57.17;99094.00;5091713;28;20198;-48
2022/06/18 02:19:03;;;;;;;1.97;1.70;;;;;;;17.57;60.23;99092.41;5091575;28;20216;-48
2022/06/18 02:21:35;;;;;;;2.83;1.83;;;;;;;17.50;58.69;99095.00;5091993;28;20185;-48
2022/06/18 02:24:03;;;;;;;3.33;1.50;;;;;;;17.51;57.83;99088.72;5091885;28;20654;-49
2022/06/18 02:26:32;;;;;;;2.80;1.90;;;;;;;17.58;59.35;99098.53;5093084;28;20664;-48
2022/06/18 02:29:00;;;;;;;2.20;1.70;;;;;;;17.61;59.05;99092.88;5092592;28;20299;-48
2022/06/18 02:31:31;;;;;;;2.43;2.23;;;;;;;17.50;59.05;99091.53;5091555;28;20293;-48
2022/06/18 02:34:02;;;;;;;10.37;1.60;;;;;;;17.43;58.68;99088.81;5092977;28;20251;-48
2022/06/18 02:36:33;;;;;;;3.33;1.67;;;;;;;17.43;58.07;99086.16;5091838;28;20599;-48
2022/06/18 02:39:10;;;;;;;2.23;1.57;;;;;;;17.48;57.77;99086.44;5091070;28;20208;-48
2022/06/18 02:41:41;;;;;;;3.10;1.53;;;;;;;17.39;57.80;99091.00;5092992;28;20694;-48
2022/06/18 02:44:10;;;;;;;1.80;1.40;;;;;;;17.45;57.76;99086.81;5091557;28;20192;-48
2022/06/18 02:46:37;;;;;;;1.97;1.60;;;;;;;17.41;58.34;99098.72;5091434;28;20262;-48
2022/06/18 02:49:06;;;;;;;1.70;1.60;;;;;;;17.35;58.41;99089.75;5091320;28;20217;-48
2022/06/18 02:51:34;;;;;;;2.00;1.53;;;;;;;17.25;58.41;99090.00;5091426;28;20210;-48
2022/06/18 02:54:20;;;;;;;3.67;1.30;;;;;;;17.22;58.31;99081.66;5092726;28;20245;-49
2022/06/18 02:56:50;;;;;;;4.43;1.60;;;;;;;17.23;57.93;99088.56;5091243;28;20279;-48
2022/06/18 02:59:17;;;;;;;6.10;1.70;;;;;;;17.20;57.97;99081.81;5090766;28;20209;-48
2022/06/18 03:02:03;;;;;;;2.63;1.60;;;;;;;17.18;58.35;99086.47;5092945;28;20768;-48
2022/06/18 03:04:30;;;;;;;3.03;1.60;;;;;;;17.13;58.49;99083.53;5090972;28;20250;-48
2022/06/18 03:06:58;;;;;;;3.93;1.47;;;;;;;17.22;58.64;99087.72;5091376;28;20197;-48
2022/06/18 03:09:26;;;;;;;1.40;1.30;;;;;;;17.16;57.88;99091.09;5092131;28;20201;-48
2022/06/18 03:12:08;;;;;;;2.50;1.30;;;;;;;17.16;58.96;99090.28;5091346;28;20212;-48
2022/06/18 03:14:37;;;;;;;3.53;1.70;;;;;;;17.16;58.00;99088.47;5091046;28;20204;-48
2022/06/18 03:17:05;;;;;;;2.47;1.43;;;;;;;17.11;58.28;99099.56;5090884;28;20269;-48
2022/06/18 03:19:37;;;;;;;2.50;1.50;;;;;;;17.09;58.41;99095.47;5090790;28;20216;-48
2022/06/18 03:22:23;;;;;;;2.63;1.50;;;;;;;17.03;58.65;99089.09;5092738;28;20318;-48
2022/06/18 03:24:54;;;;;;;2.97;1.60;;;;;;;17.05;59.59;99091.56;5091016;28;20224;-48
2022/06/18 03:27:23;;;;;;;2.97;1.60;;;;;;;17.07;58.99;99093.03;5090873;28;20282;-48
2022/06/18 03:29:56;;;;;;;2.77;1.73;;;;;;;17.03;59.29;99089.09;5090794;28;20177;-49
2022/06/18 03:32:24;;;;;;;2.10;1.80;;;;;;;16.98;58.83;99086.19;5090758;28;20581;-48
2022/06/18 03:34:52;;;;;;;3.10;1.53;;;;;;;16.98;59.26;99083.56;5090890;28;20192;-48
2022/06/18 03:37:20;;;;;;;3.83;1.63;;;;;;;16.99;59.57;99085.19;5090857;28;20199;-48
2022/06/18 03:39:48;;;;;;;2.20;1.63;;;;;;;17.04;59.31;99092.53;5090845;28;20188;-48
2022/06/18 03:42:16;;;;;;;2.20;1.63;;;;;;;17.08;60.21;99091.19;5090830;28;20669;-49
2022/06/18 03:44:45;;;;;;;4.63;1.87;;;;;;;17.07;60.51;99092.19;5091145;28;20206;-48
2022/06/18 03:47:12;;;;;;;2.60;1.50;;;;;;;17.06;58.50;99091.38;5090557;28;20287;-48
2022/06/18 03:49:41;;;;;;;2.33;1.60;;;;;;;17.14;59.22;99087.81;5091163;28;20238;-48
2022/06/18 03:52:10;;;;;;;3.40;1.80;;;;;;;17.22;58.22;99098.28;5094733;28;20228;-48
2022/06/18 03:54:37;;;;;;;1.90;1.63;;;;;;;17.29;60.16;99097.56;5094470;28;20213;-48
2022/06/18 03:57:08;;;;;;;1.73;1.63;;;;;;;17.32;59.39;99099.81;5094681;28;20193;-48
2022/06/18 03:59:37;;;;;;;1.53;1.43;;;;;;;17.33;59.31;99101.47;5094745;28;20585;-48
2022/06/18 04:02:07;;;;;;;2.37;1.53;;;;;;;17.35;58.71;99102.94;5094480;28;20190;-48
2022/06/18 04:04:40;;;;;;;1.93;1.60;;;;;;;17.46;59.09;99109.56;5094515;28;20193;-48
2022/06/18 04:07:17;;;;;;;2.90;1.50;;;;;;;17.51;59.51;99109.81;5094254;28;20200;-48
2022/06/18 04:10:04;;;;;;;1.83;1.50;;;;;;;17.55;59.02;99107.63;5095365;28;20201;-48
2022/06/18 04:12:32;;;;;;;3.87;1.63;;;;;;;17.57;58.71;99108.25;5094212;28;20227;-48
2022/06/18 04:15:24;;;;;;;4.17;1.50;;;;;;;17.65;58.95;99110.78;5094214;28;20198;-48
2022/06/18 04:18:02;;;;;;;1.70;1.60;;;;;;;17.70;59.56;99115.53;5093976;28;20235;-48
2022/06/18 04:20:32;;;;;;;1.50;1.40;;;;;;;17.77;58.47;99110.31;5093929;28;20633;-48
2022/06/18 04:23:02;;;;;;;1.47;1.30;;;;;;;17.80;60.14;99107.31;5094063;28;20220;-48
2022/06/18 04:25:34;;;;;;;1.90;1.70;;;;;;;17.81;59.55;99104.50;5094168;28;20201;-48
2022/06/18 04:28:01;;;;;;;3.00;1.67;;;;;;;17.90;57.92;99104.38;5093434;28;20293;-48
2022/06/18 04:30:32;;;;;;;3.87;1.70;;;;;;;17.99;58.80;99103.25;5094085;28;20189;-48
2022/06/18 04:33:10;;;;;;;2.43;1.70;;;;;;;18.07;57.83;99102.34;5093853;28;20210;-48
2022/06/18 04:35:45;;;;;;;5.60;1.70;;;;;;;18.18;58.89;99101.00;5093835;28;20217;-48
2022/06/18 04:38:14;;;;;;;3.27;2.13;;;;;;;18.24;60.20;99097.63;5093485;28;20214;-49
2022/06/18 04:40:57;;;;;;;6.00;2.10;;;;;;;18.29;60.28;99097.88;5095178;28;20167;-48
2022/06/18 04:43:33;;;;;;;3.10;2.10;;;;;;;18.36;61.07;99098.75;5092655;28;20273;-50
2022/06/18 04:46:02;;;;;;;7.87;2.30;;;;;;;18.43;59.81;99094.34;5093445;28;20280;-49
2022/06/18 04:48:32;;;;;;;7.03;2.33;;;;;;;18.57;61.98;99091.81;5093096;28;20241;-49
2022/06/18 04:50:59;;;;;;;5.33;2.23;;;;;;;18.57;61.75;99089.16;5093150;28;20191;-49
2022/06/18 04:53:27;;;;;;;18.93;3.57;;;;;;;18.62;60.80;99097.34;5093226;28;20212;-49
2022/06/18 04:55:58;;;;;;;6.50;2.30;;;;;;;18.78;60.74;99095.41;5093214;28;20620;-49
2022/06/18 04:58:25;;;;;;;7.73;3.27;;;;;;;18.80;62.76;99090.75;5094137;28;20199;-49
2022/06/18 05:00:56;;;;;;;7.80;2.13;;;;;;;18.84;60.96;99089.38;5093567;28;20561;-49
2022/06/18 05:03:48;;;;;;;5.47;2.40;;;;;;;18.89;60.68;99087.75;5093169;28;20224;-49
2022/06/18 05:06:26;;;;;;;9.20;2.73;;;;;;;18.97;61.92;99101.88;5093107;28;20198;-49
2022/06/18 05:09:19;;;;;;;8.20;2.80;;;;;;;19.06;60.76;99105.22;5077666;28;20247;-49
2022/06/18 05:12:00;;;;;;;5.57;2.80;;;;;;;19.15;60.46;99099.56;5093051;28;20222;-51
2022/06/18 05:14:57;;;;;;;3.00;2.07;;;;;;;19.26;59.78;99108.75;5056539;28;20283;-49
2022/06/18 05:17:27;;;;;;;4.23;2.20;;;;;;;19.27;57.78;99109.59;5092643;28;20196;-49
2022/06/18 05:19:56;;;;;;;5.20;1.93;;;;;;;19.35;59.65;99105.94;5092480;28;20274;-49
2022/06/18 05:22:25;;;;;;;19.50;2.93;;;;;;;19.40;59.65;99106.19;5093334;28;20191;-49
2022/06/18 05:24:59;;;;;;;4.80;2.40;;;;;;;19.50;58.93;99114.56;5093632;28;20207;-49
2022/06/18 05:27:28;;;;;;;10.33;2.20;;;;;;;19.59;60.04;99116.03;5092416;28;20195;-50
2022/06/18 05:29:56;;;;;;;4.20;2.00;;;;;;;19.72;61.19;99114.47;5092331;28;20288;-49
2022/06/18 05:32:28;;;;;;;12.43;2.60;;;;;;;19.81;61.02;99107.97;5092480;28;20233;-49
2022/06/18 05:34:57;;;;;;;8.37;2.97;;;;;;;19.89;60.24;99107.81;5092396;28;20702;-49
2022/06/18 05:37:28;;;;;;;11.73;3.47;;;;;;;19.99;60.03;99104.78;5092323;28;20190;-49
2022/06/18 05:39:56;;;;;;;7.07;2.60;;;;;;;20.17;59.33;99109.50;5092034;28;20192;-49
2022/06/18 05:42:24;;;;;;;5.03;1.90;;;;;;;20.46;59.21;99106.69;5092118;28;20651;-49
2022/06/18 05:44:55;;;;;;;3.50;1.77;;;;;;;20.71;58.48;99098.91;5092379;28;20197;-49
2022/06/18 05:47:25;;;;;;;4.40;1.50;;;;;;;20.91;58.63;99106.06;5092013;28;20584;-49
2022/06/18 05:49:56;;;;;;;3.43;1.60;;;;;;;21.15;57.82;99104.59;5091994;28;20197;-49
2022/06/18 05:52:25;;;;;;;3.50;1.60;;;;;;;21.34;57.72;99096.75;5092104;28;20207;-49
2022/06/18 05:54:52;;;;;;;3.17;1.70;;;;;;;21.52;57.26;99093.41;5092013;28;20207;-49
2022/06/18 05:57:49;;;;;;;6.10;2.00;;;;;;;21.63;57.80;99097.31;5087541;28;20216;-49
2022/06/18 06:00:24;;;;;;;2.70;1.97;;;;;;;21.80;57.27;99106.38;5092104;28;20279;-49
2022/06/18 06:02:53;;;;;;;3.53;1.90;;;;;;;21.97;56.63;99096.09;5092173;28;20253;-51
2022/06/18 06:05:21;;;;;;;4.03;1.80;;;;;;;22.11;57.11;99096.81;5092017;28;20202;-49
2022/06/18 06:07:52;;;;;;;2.97;1.70;;;;;;;22.23;56.14;99096.94;5091643;28;20209;-49
2022/06/18 06:13:09;;;;;;;4.13;2.10;;;;;;;22.55;55.36;99091.59;5092589;28;20210;-49
2022/06/18 06:15:38;;;;;;;3.17;1.50;;;;;;;22.74;54.61;99088.16;5091674;28;20284;-49
2022/06/18 06:18:06;;;;;;;1.70;1.33;;;;;;;22.85;54.03;99080.25;5091226;28;20241;-49
2022/06/18 06:20:38;;;;;;;2.87;1.77;;;;;;;23.03;53.30;99077.81;5092749;28;20182;-49
2022/06/18 06:23:08;;;;;;;2.07;1.40;;;;;;;23.12;53.99;99079.16;5092882;28;20557;-49
2022/06/18 06:25:37;;;;;;;3.80;1.70;;;;;;;23.28;51.72;99072.47;5092605;28;20719;-49
2022/06/18 06:28:08;;;;;;;2.73;1.47;;;;;;;23.41;52.25;99076.81;5091116;28;20290;-49
2022/06/18 06:30:36;;;;;;;1.80;1.60;;;;;;;23.58;51.25;99064.50;5092754;28;20186;-50
2022/06/18 06:33:03;;;;;;;2.37;1.70;;;;;;;23.73;51.41;99071.28;5092397;28;20202;-50
2022/06/18 06:35:31;;;;;;;2.47;1.50;;;;;;;23.83;51.67;99068.88;5092462;28;20565;-50
2022/06/18 06:37:59;;;;;;;3.53;1.97;;;;;;;23.98;52.29;99071.13;5092041;28;20277;-50
2022/06/18 06:40:27;;;;;;;3.57;1.70;;;;;;;24.13;52.52;99057.38;5092440;28;20190;-50
2022/06/18 06:42:56;;;;;;;3.97;1.80;;;;;;;24.20;52.58;99059.94;5092402;28;20611;-50
2022/06/18 06:45:26;;;;;;;1.70;1.30;;;;;;;24.39;53.05;99070.50;5092359;28;20189;-50
2022/06/18 06:47:54;;;;;;;2.30;1.60;;;;;;;24.55;52.70;99061.00;5092303;28;20560;-49
2022/06/18 06:50:24;;;;;;;1.63;1.50;;;;;;;24.72;52.17;99063.78;5092505;28;20195;-50
2022/06/18 06:52:51;;;;;;;1.80;1.30;;;;;;;24.81;52.14;99062.41;5092191;28;20203;-50
2022/06/18 06:58:08;;;;;;;1.63;1.50;;;;;;;25.06;51.92;99056.78;5091798;28;20580;-50
2022/06/18 07:00:39;;;;;;;2.63;1.30;;;;;;;25.12;51.44;99065.75;5090962;28;20187;-50
2022/06/18 07:03:06;;;;;;;2.63;1.43;;;;;;;25.22;50.61;99061.66;5092107;28;20583;-49
2022/06/18 07:05:51;;;;;;;1.75;1.48;;;;;;;25.28;50.05;99061.50;5092609;28;20676;-50
2022/06/18 07:08:19;;;;;;;2.20;1.90;;;;;;;25.24;46.81;99060.34;5091696;28;20247;-51
2022/06/18 07:10:48;;;;;;;1.92;1.67;;;;;;;25.31;46.38;99065.59;5092155;28;20632;-50
2022/06/18 07:13:18;;;;;;;3.03;1.93;;;;;;;25.18;45.98;99067.47;5092111;28;20623;-49
2022/06/18 07:15:47;;;;;;;7.25;2.30;;;;;;;25.15;46.20;99067.13;5092311;28;20200;-49
2022/06/18 07:18:35;;;;;;;2.70;2.20;;;;;;;25.35;45.79;99072.88;5092091;28;20320;-50
2022/06/18 07:21:04;;;;;;;4.13;2.40;;;;;;;25.37;44.85;99064.63;5091754;28;20189;-50
2022/06/18 07:23:31;;;;;;;3.27;2.30;;;;;;;25.35;45.68;99080.88;5090643;28;20573;-50
2022/06/18 07:25:59;;;;;;;3.50;2.30;;;;;;;25.56;45.08;99075.16;5094850;28;20185;-52
2022/06/18 07:28:28;;;;;;;4.38;2.50;;;;;;;25.35;45.07;99072.88;5095799;28;20686;-50
2022/06/18 07:30:56;;;;;;;3.42;2.30;;;;;;;25.48;45.39;99061.13;5095941;28;20195;-50
2022/06/18 07:33:26;;;;;;;2.40;2.20;;;;;;;25.54;46.43;99070.06;5095772;28;20199;-50
2022/06/18 07:35:54;;;;;;;3.13;2.33;;;;;;;25.73;45.67;99067.97;5095973;28;20193;-50
2022/06/18 07:38:21;;;;;;;5.57;2.30;;;;;;;25.71;45.00;99066.63;5095515;28;20207;-50
2022/06/18 07:40:54;;;;;;;2.90;2.10;;;;;;;25.71;42.41;99064.75;5096204;28;20179;-50
2022/06/18 07:43:32;;;;;;;2.57;2.00;;;;;;;25.68;43.37;99064.41;5095879;28;20192;-50
2022/06/18 07:46:01;;;;;;;3.23;2.00;;;;;;;25.74;43.37;99066.13;5095827;28;20183;-50
2022/06/18 07:48:47;;;;;;;3.60;2.27;;;;;;;25.86;43.27;99068.75;5095532;28;20577;-50
2022/06/18 07:51:15;;;;;;;5.43;2.33;;;;;;;25.92;41.80;99065.94;5095680;28;20546;-50
2022/06/18 07:53:43;;;;;;;3.00;2.50;;;;;;;25.94;42.28;99071.03;5095562;28;20287;-50
2022/06/18 07:56:14;;;;;;;5.80;2.70;;;;;;;26.04;43.07;99073.88;5095515;28;20229;-50
2022/06/18 07:58:43;;;;;;;3.25;2.63;;;;;;;26.19;42.35;99065.31;5095216;28;20213;-50
2022/06/18 08:01:11;;;;;;;2.72;2.50;;;;;;;26.07;42.66;99059.19;5095582;28;20196;-50
2022/06/18 08:03:39;;;;;;;5.93;2.33;;;;;;;26.18;44.57;99054.88;5094021;28;20520;-50
2022/06/18 08:06:07;;;;;;;17.63;3.70;;;;;;;26.16;42.79;99056.97;5095305;28;20433;-50
2022/06/18 08:08:34;;;;;;;5.03;2.97;;;;;;;26.26;42.36;99054.47;5095003;28;20692;-48
2022/06/18 08:11:20;;;;;;;6.30;2.43;;;;;;;26.44;42.40;99055.25;5095828;28;20194;-48
2022/06/18 08:13:50;;;;;;;3.70;2.85;;;;;;;26.51;43.25;99056.69;5095087;28;20296;-48
2022/06/18 08:16:20;;;;;;;3.55;2.65;;;;;;;26.53;41.63;99053.75;5095303;28;20209;-47
2022/06/18 08:18:47;;;;;;;3.22;2.78;;;;;;;26.51;41.47;99058.56;5094760;28;20210;-49
2022/06/18 08:21:19;;;;;;;3.08;2.88;;;;;;;26.57;42.05;99057.56;5093766;28;20192;-48
2022/06/18 08:23:49;;;;;;;6.75;3.00;;;;;;;26.63;40.52;99061.16;5095139;28;20183;-48
2022/06/18 08:26:16;;;;;;;4.20;2.72;;;;;;;26.70;41.62;99058.28;5094903;28;20193;-48
2022/06/18 08:28:44;;;;;;;4.50;2.95;;;;;;;26.82;40.69;99064.38;5094810;28;20206;-48
2022/06/18 08:31:13;;;;;;;2.85;2.55;;;;;;;26.77;39.68;99058.91;5094923;28;20191;-48
2022/06/18 08:33:40;;;;;;;3.67;2.30;;;;;;;26.78;40.15;99053.34;5094719;28;20212;-48
2022/06/18 08:36:09;;;;;;;6.95;2.72;;;;;;;26.71;39.60;99050.03;5094843;28;20188;-48
2022/06/18 08:38:39;;;;;;;3.72;2.60;;;;;;;26.73;39.54;99041.72;5094400;28;20199;-48
2022/06/18 08:41:22;;;;;;;4.00;2.60;;;;;;;26.90;40.72;99033.69;5094790;28;20188;-48
2022/06/18 08:44:05;;;;;;;4.78;2.60;;;;;;;27.00;40.16;99024.97;5094666;28;20176;-48
2022/06/18 08:46:41;;;;;;;5.13;2.65;;;;;;;27.05;39.89;99025.03;5094574;28;20557;-48
2022/06/18 08:49:22;;;;;;;4.22;2.45;;;;;;;27.16;39.23;99017.91;5094255;28;20262;-48
2022/06/18 08:52:04;;;;;;;3.90;2.63;;;;;;;27.13;39.72;99015.72;5094561;28;20197;-50
2022/06/18 08:54:41;;;;;;;3.10;2.42;;;;;;;27.35;38.53;99013.81;5093930;28;20636;-50
2022/06/18 08:57:17;;;;;;;2.92;2.30;;;;;;;27.38;37.49;99016.00;5094485;28;20287;-50
2022/06/18 08:59:56;;;;;;;3.97;2.10;;;;;;;27.54;37.30;99016.19;5094476;28;20185;-50
2022/06/18 09:02:31;;;;;;;4.07;2.40;;;;;;;27.75;37.48;99014.50;5094385;28;20268;-50
2022/06/18 09:05:09;;;;;;;2.50;2.30;;;;;;;27.78;37.81;99005.16;5094332;28;20691;-48
2022/06/18 09:07:52;;;;;;;4.75;2.50;;;;;;;27.69;37.12;99004.78;5094222;28;20237;-48
2022/06/18 09:10:33;;;;;;;4.47;2.58;;;;;;;27.78;37.87;99002.47;5094562;28;20538;-48
2022/06/18 09:13:05;;;;;;;5.15;2.33;;;;;;;27.90;38.70;99011.16;5094044;28;20297;-48
2022/06/18 09:15:38;;;;;;;7.85;2.70;;;;;;;28.10;38.77;99009.66;5094003;28;20242;-48
2022/06/18 09:18:14;;;;;;;5.35;2.63;;;;;;;28.14;37.32;99006.25;5093838;28;20279;-48
2022/06/18 09:20:48;;;;;;;3.60;2.53;;;;;;;28.01;39.03;99004.00;5094045;28;20192;-48
2022/06/18 09:23:21;;;;;;;7.43;2.80;;;;;;;28.00;36.14;99007.72;5092693;28;20238;-50
2022/06/18 09:25:52;;;;;;;5.45;2.60;;;;;;;28.08;36.65;99012.63;5093983;28;20399;-50
2022/06/18 09:28:25;;;;;;;4.70;2.67;;;;;;;27.94;37.85;99009.59;5093786;28;20208;-50
2022/06/18 09:30:59;;;;;;;4.00;2.88;;;;;;;28.18;36.94;99009.22;5093737;28;20193;-50
2022/06/18 09:33:35;;;;;;;3.42;2.30;;;;;;;28.30;37.04;99009.06;5093553;28;20254;-50
2022/06/18 09:36:12;;;;;;;4.63;2.28;;;;;;;28.45;35.93;99002.16;5093756;28;20181;-50
2022/06/18 09:38:44;;;;;;;3.42;2.15;;;;;;;28.41;37.15;99005.38;5093372;28;20204;-50
2022/06/18 09:41:17;;;;;;;2.88;2.05;;;;;;;28.53;34.09;99005.16;5093618;28;20203;-50
2022/06/18 09:43:53;;;;;;;4.68;2.30;;;;;;;28.69;35.86;99005.22;5093564;28;20182;-50
2022/06/18 09:46:24;;;;;;;2.97;2.40;;;;;;;28.62;35.33;99002.78;5093547;28;20272;-50
2022/06/18 09:48:53;;;;;;;2.67;2.33;;;;;;;28.61;36.05;99008.41;5092028;28;20343;-50
2022/06/18 09:51:27;;;;;;;2.95;2.10;;;;;;;28.73;35.58;98998.28;5093446;28;20196;-50
2022/06/18 09:53:59;;;;;;;2.33;2.05;;;;;;;28.95;33.75;98992.72;5091983;28;20241;-50
2022/06/18 09:56:35;;;;;;;1.92;1.73;;;;;;;29.02;32.77;98997.88;5093409;28;20181;-50
2022/06/18 09:59:09;;;;;;;2.33;2.00;;;;;;;28.95;33.30;98987.38;5092926;28;20197;-50
2022/06/18 10:01:40;;;;;;;2.90;1.98;;;;;;;29.17;30.09;98989.84;5093152;28;20196;-48
2022/06/18 10:06:59;;;;;;;4.15;1.92;;;;;;;29.20;32.08;98968.88;5093211;28;20661;-48
2022/06/18 10:09:34;;;;;;;2.78;1.67;;;;;;;29.52;30.14;98978.63;5092802;28;20205;-48
2022/06/18 10:12:13;;;;;;;3.05;1.73;;;;;;;29.62;31.92;98972.47;5093357;28;20193;-48
2022/06/18 10:15:00;;;;;;;2.10;1.90;;;;;;;29.68;32.78;98969.50;5093106;28;20341;-48
2022/06/18 10:17:44;;;;;;;2.30;2.00;;;;;;;29.91;33.64;98961.97;5092794;28;20723;-48
2022/06/18 10:20:19;;;;;;;3.13;2.15;;;;;;;29.98;29.65;98951.75;5092782;28;20285;-48
2022/06/18 10:22:59;;;;;;;3.40;1.83;;;;;;;29.89;28.92;98954.16;5092860;28;20627;-48
2022/06/18 10:25:33;;;;;;;1.45;1.35;;;;;;;29.64;29.20;98954.19;5092929;28;20182;-48
2022/06/18 10:28:10;;;;;;;2.25;1.90;;;;;;;29.85;30.70;98949.59;5092598;28;20216;-48
2022/06/18 10:30:49;;;;;;;2.90;1.70;;;;;;;29.99;29.95;98947.16;5092925;28;20519;-48
2022/06/18 10:33:27;;;;;;;3.65;2.20;;;;;;;29.93;29.79;98945.53;5092690;28;20654;-48
2022/06/18 10:36:11;;;;;;;2.28;2.03;;;;;;;30.03;30.87;98941.00;5091447;28;20194;-48
2022/06/18 10:38:54;;;;;;;2.75;2.05;;;;;;;30.08;32.08;98936.69;5092364;28;20198;-48
2022/06/18 10:41:25;;;;;;;2.30;2.10;;;;;;;30.34;29.95;98924.72;5092744;28;20189;-48
2022/06/18 10:44:17;;;;;;;1.85;1.75;;;;;;;30.19;29.94;98928.28;5092641;28;20547;-47
2022/06/18 10:46:44;;;;;;;3.05;1.88;;;;;;;30.30;30.52;98925.56;5091078;28;20654;-48
2022/06/18 10:49:12;;;;;;;2.97;2.20;;;;;;;30.39;31.38;98923.94;5090801;28;20226;-48
2022/06/18 10:51:47;;;;;;;4.82;2.00;;;;;;;30.48;30.84;98919.59;5091240;28;20193;-48
2022/06/18 10:54:15;;;;;;;4.78;2.40;;;;;;;30.69;30.37;98921.41;5091202;28;20304;-50
2022/06/18 10:56:48;;;;;;;3.05;2.53;;;;;;;30.60;30.35;98913.09;5092405;28;20193;-50
2022/06/18 10:59:15;;;;;;;4.43;2.10;;;;;;;30.70;31.36;98913.06;5091929;28;20693;-51
2022/06/18 11:01:46;;;;;;;2.42;2.22;;;;;;;30.69;31.27;98919.53;5092303;28;20192;-50
2022/06/18 11:04:23;;;;;;;3.80;2.22;;;;;;;30.87;31.84;98909.16;5092528;28;20182;-50
2022/06/18 11:06:58;;;;;;;3.53;2.67;;;;;;;30.85;31.66;98911.34;5092616;28;20217;-48
2022/06/18 11:09:31;;;;;;;4.03;2.00;;;;;;;31.06;31.37;98912.81;5092189;28;20207;-48
2022/06/18 11:12:01;;;;;;;3.05;2.33;;;;;;;30.88;31.14;98908.09;5092459;28;20186;-48
2022/06/18 11:14:28;;;;;;;4.03;2.25;;;;;;;30.85;30.98;98901.38;5092096;28;20745;-48
2022/06/18 11:16:58;;;;;;;2.70;2.20;;;;;;;30.97;31.30;98898.31;5092219;28;20186;-48
2022/06/18 11:19:30;;;;;;;3.70;2.45;;;;;;;31.18;31.75;98895.53;5090789;28;20288;-48
2022/06/18 11:22:09;;;;;;;3.28;2.40;;;;;;;31.41;31.44;98887.78;5092395;28;20181;-48
2022/06/18 11:24:38;;;;;;;3.63;2.30;;;;;;;31.37;31.80;98892.94;5090949;28;20243;-48
2022/06/18 11:27:13;;;;;;;2.58;2.35;;;;;;;31.44;30.78;98884.53;5092142;28;20189;-49
2022/06/18 11:29:42;;;;;;;2.47;2.22;;;;;;;31.61;30.74;98876.84;5092139;28;20658;-48
2022/06/18 11:32:17;;;;;;;3.13;2.20;;;;;;;31.75;29.80;98884.28;5092344;28;20186;-48
2022/06/18 11:35:07;;;;;;;3.08;2.70;;;;;;;31.61;30.19;98879.53;5092185;28;20298;-48
2022/06/18 11:37:37;;;;;;;2.63;2.30;;;;;;;31.68;31.76;98873.78;5092194;28;20756;-48
2022/06/18 11:40:19;;;;;;;2.65;1.90;;;;;;;31.88;30.19;98872.00;5090683;28;20209;-48
2022/06/18 11:42:50;;;;;;;5.60;2.45;;;;;;;31.74;30.26;98866.50;5090853;28;20646;-48
2022/06/18 11:45:36;;;;;;;5.32;2.22;;;;;;;31.80;30.95;98855.34;5092007;28;20235;-49
2022/06/18 11:48:08;;;;;;;5.07;1.88;;;;;;;31.92;31.95;98856.84;5091771;28;20739;-48
2022/06/18 11:50:41;;;;;;;4.45;2.60;;;;;;;32.00;29.98;98853.50;5091051;28;20280;-48
2022/06/18 11:53:16;;;;;;;3.58;2.25;;;;;;;31.87;30.29;98844.19;5092229;28;20197;-49
2022/06/18 11:55:47;;;;;;;4.10;2.47;;;;;;;31.91;30.33;98839.03;5092239;28;20216;-48
2022/06/18 11:58:21;;;;;;;5.80;2.15;;;;;;;32.26;31.14;98839.72;5091977;28;20896;-50
2022/06/18 12:00:56;;;;;;;2.33;2.10;;;;;;;32.38;30.70;98837.38;5092218;28;20189;-50
2022/06/18 12:03:32;;;;;;;3.40;2.05;;;;;;;32.29;31.26;98841.00;5091928;28;20189;-50
2022/06/18 12:06:05;;;;;;;4.15;2.20;;;;;;;32.26;30.68;98837.00;5092121;28;20186;-48
2022/06/18 12:08:35;;;;;;;4.30;2.00;;;;;;;32.64;31.04;98828.94;5091481;28;20228;-48
2022/06/18 12:11:09;;;;;;;5.30;2.30;;;;;;;32.55;30.13;98822.56;5092036;28;20190;-48